Bradfordton, Illinois
Current Conditions -  °F | °C
As of 5:52 PM on Friday 28 Nov 2014 (Local Time) from KSPI Reporting Station
Clear Clear  
Wind Chill: 31°   Ceiling: Unl
Heat Index: 39°   Visibility: 10mi
Dew Point: 30°   Wind: 15mph
Humidity: 70%   Direction: 160°SSE
Pressure: 29.94"   Gusts: NA
Location:  39.854°N, 89.6295°W
Report Text: KSPI 282352Z 16013KT 10SM CLR 04/M01 A2994 RMK AO2 SLP146 T00391011 10044 20017 55008
Loading
Personal Weather Stations






























Interactive Weather Map New forecast layout! Learn more

10-Day Weather Forecast

Advertisements
Track Severe Weather on mobile